SARFSARE

Guest
Details From SARF - FORMOSA
To SARE - RESISTENCIA
Flight Number -
Tags generated
Created
Modified
Stats Distance 87 nm / 160 km
Max Altitude 0 ft / 0 m
Waypoints 3
Social Downloads 1
Likes 0
Share VATSIM

Download

Looking for another format? Having issues loading an existing format? Contact us
Advertisement - Login to hide

Notes

Basic altitude profile: - Ascent Rate: 2500ft/min - Ascent Speed: 250kts - Cruise Altitude: 35000ft - Cruise Speed: 420kts - Descent Rate: 1500ft/min - Descent Speed: 250kts Options: - Use NATs: yes - Use PACOTS: yes - Use low airways: yes - Use high airways: yes

Route

SARF SIS SARE

ID Type Via Altitude Latitude Longitude Leg Dist Tot Dist Heading (true) Name
O SARF APT - 0 ft / 0 m -26.21272˚ -58.22811˚ - 0 nm - FORMOSA
SIS VOR - 0 ft / 0 m -27.44694˚ -59.05722˚ 86 nm 86 nm 211° / 211° RESISTENCIA VOR-DME
O SARE APT - 0 ft / 0 m -27.44999˚ -59.05613˚ 0 nm 86 nm 162° / 162° RESISTENCIA

Altitude Profile

Advertisement - Login to hide

SARF

Details ICAO SARF (FMA)
Name FORMOSA
Region Argentina
Timezone America/Argentina/Cordoba (UTC-3.0)
Stats Elevation 194 ft / 59 m (AMSL)
Location -26.212722° -58.228111°
Runways 1
Magnetic Variation 13.232° W

METAR

SARF 151900Z 14006KT 9999 SHRA SCT025 FEW040TCU 36/22 Q1007

Decode

TAF

TAF TAF SARF 151700Z 1518/1618 14005KT 9999 SCT025 TX38/1618Z TN23/1609Z BECMG 1522/1524 05010KT CSARI 151700Z 1518/1618 36005KT 9999 FEW035 TX36/1618Z TN21/1609Z PROB40 1520/1524 8000 -S5 SCT040TCU BECMG 1603/1605 05005T 2000 BR NSC

Decode

Departure Runways

ID Width Length Bearing (true) Bearing (mag) Surface Threshold Offset Overrun Length
04 100 ft / 30 m 5,922 ft / 1,805 m 24.88° 38.11° Asphalt 0 ft / 0 m 65 ft / 20 m
22 100 ft / 30 m 5,922 ft / 1,805 m 204.88° 218.11° Asphalt 0 ft / 0 m 65 ft / 20 m

SARE

Details ICAO SARE (RES)
Name RESISTENCIA
Region Argentina
Timezone America/Argentina/Cordoba (UTC-3.0)
Stats Elevation 173 ft / 53 m (AMSL)
Location -27.449986° -59.056125°
Runways 1
Magnetic Variation 12.049° W

METAR

SARE 151900Z 11007KT 8000 FEW050CB 39/18 Q1006

Decode

TAF

TAF SARE 151700Z 1518/1618 11005KT 8000 FEW030 TX38/1618Z TN23/1609Z PROB30 1519/1523 -SHRA SCT025 SCT045CTU BECMG 1600/1603 05005KT CAVOK

Decode

Destination Runways

ID Width Length Bearing (true) Bearing (mag) Surface Threshold Offset Overrun Length
03 147 ft / 45 m 9,126 ft / 2,782 m 20.81° 32.86° Asphalt 0 ft / 0 m 115 ft / 35 m
21 147 ft / 45 m 9,126 ft / 2,782 m 200.81° 212.86° Asphalt 0 ft / 0 m 115 ft / 35 m

Approach Navaids

Runway Type Ident Frequency Range Bearing (true) Bearing (mag) Slope Elevation
21 Localiser RS 110.30 MHz 18 nm / 33 km 200.74° 212.79° - 174 ft / 53 m (AMSL)
21 Glidescope RS 110.30 MHz 10 nm / 19 km 200.81° 212.86° 3.00° 174 ft / 53 m (AMSL)